createdAt,value
2023-01-06T00:01:34.641Z,16.00
2023-01-06T00:04:03.489Z,16.40
2023-01-06T00:06:32.333Z,16.50
2023-01-06T00:09:02.545Z,16.50
2023-01-06T00:11:31.748Z,16.10
2023-01-06T00:14:01.585Z,16.00
2023-01-06T00:16:30.166Z,16.40
2023-01-06T00:18:59.728Z,16.00
2023-01-06T00:21:28.468Z,15.90
2023-01-06T00:23:56.817Z,15.90
2023-01-06T00:26:25.384Z,15.70
2023-01-06T00:28:54.899Z,16.20
2023-01-06T00:31:25.007Z,15.80
2023-01-06T00:33:53.566Z,15.40
2023-01-06T00:36:22.613Z,15.70
2023-01-06T00:38:51.671Z,14.90
2023-01-06T00:41:37.976Z,15.40
2023-01-06T00:44:06.817Z,15.60
2023-01-06T00:46:36.546Z,15.20
2023-01-06T00:49:07.414Z,15.20
2023-01-06T00:51:37.654Z,15.40
2023-01-06T00:54:06.173Z,14.80
2023-01-06T00:56:37.619Z,14.70
2023-01-06T00:59:06.059Z,15.70
2023-01-06T01:01:36.338Z,15.60
2023-01-06T01:04:05.083Z,15.10
2023-01-06T01:06:33.633Z,15.40
2023-01-06T01:09:02.824Z,15.70
2023-01-06T01:11:49.850Z,16.10
2023-01-06T01:14:19.773Z,15.80
2023-01-06T01:16:49.558Z,15.60
2023-01-06T01:19:18.648Z,15.90
2023-01-06T01:21:47.753Z,16.30
2023-01-06T01:24:16.195Z,16.40
2023-01-06T01:26:44.620Z,15.90
2023-01-06T01:29:13.683Z,16.10
2023-01-06T01:31:42.575Z,16.00
2023-01-06T01:34:14.067Z,15.90
2023-01-06T01:36:42.776Z,15.80
2023-01-06T01:39:12.120Z,16.00
2023-01-06T01:41:40.672Z,16.20
2023-01-06T01:44:45.755Z,16.20
2023-01-06T01:47:17.121Z,15.50
2023-01-06T01:49:48.927Z,15.20
2023-01-06T01:52:19.387Z,15.70
2023-01-06T01:54:48.860Z,15.80
2023-01-06T01:57:20.373Z,15.80
2023-01-06T01:59:49.149Z,16.20
2023-01-06T02:02:19.854Z,16.00
2023-01-06T02:04:52.642Z,16.30
2023-01-06T02:07:22.666Z,16.10
2023-01-06T02:09:59.024Z,16.60
2023-01-06T02:12:27.863Z,16.80
2023-01-06T02:14:56.436Z,16.90
2023-01-06T02:17:47.183Z,16.30
2023-01-06T02:20:36.684Z,16.10
2023-01-06T02:23:41.867Z,16.60
2023-01-06T02:26:52.386Z,16.40
2023-01-06T02:29:44.349Z,16.30
2023-01-06T02:32:27.244Z,16.70
2023-01-06T02:35:10.114Z,16.60
2023-01-06T02:37:51.023Z,16.50
2023-01-06T02:40:30.418Z,16.30
2023-01-06T02:43:11.514Z,16.30
2023-01-06T02:45:50.046Z,16.20
2023-01-06T02:48:28.037Z,16.40
2023-01-06T02:51:05.920Z,16.20
2023-01-06T02:53:42.084Z,16.30
2023-01-06T02:56:11.714Z,16.40
2023-01-06T02:58:48.591Z,16.00
2023-01-06T03:01:22.707Z,16.20
2023-01-06T03:03:54.435Z,15.90
2023-01-06T03:06:26.941Z,16.50
2023-01-06T03:08:56.600Z,16.60
2023-01-06T03:11:27.659Z,16.00
2023-01-06T03:14:00.794Z,16.20
2023-01-06T03:16:29.150Z,16.50
2023-01-06T03:18:59.408Z,16.80
2023-01-06T03:21:33.099Z,16.80
2023-01-06T03:24:01.482Z,16.70
2023-01-06T03:26:29.950Z,17.00
2023-01-06T03:28:58.342Z,17.00
2023-01-06T03:31:35.674Z,17.40
2023-01-06T03:34:12.511Z,17.00
2023-01-06T03:36:50.570Z,17.30
2023-01-06T03:39:23.467Z,17.10
2023-01-06T03:42:31.241Z,17.30
2023-01-06T03:45:14.360Z,17.20
2023-01-06T03:47:51.362Z,17.00
2023-01-06T03:50:25.650Z,17.30
2023-01-06T03:53:01.442Z,17.30
2023-01-06T03:55:34.878Z,16.90
2023-01-06T03:58:06.366Z,17.10
2023-01-06T04:00:38.204Z,17.20
2023-01-06T04:03:13.826Z,17.30
2023-01-06T04:05:43.550Z,16.90
2023-01-06T04:08:11.998Z,16.80
2023-01-06T04:10:40.694Z,16.90
2023-01-06T04:13:08.195Z,17.20
2023-01-06T04:15:36.593Z,17.10
2023-01-06T04:18:04.956Z,17.00
2023-01-06T04:20:33.385Z,17.30
2023-01-06T04:23:03.059Z,16.90
2023-01-06T04:25:31.625Z,17.10
2023-01-06T04:27:59.962Z,17.50
2023-01-06T04:30:28.329Z,17.40
2023-01-06T04:32:56.934Z,17.00
2023-01-06T04:35:25.110Z,17.10
2023-01-06T04:37:53.532Z,16.90
2023-01-06T04:40:23.199Z,17.20
2023-01-06T04:43:07.176Z,17.10
2023-01-06T04:45:36.323Z,17.20
2023-01-06T04:48:05.099Z,17.20
2023-01-06T04:50:33.448Z,17.60
2023-01-06T04:53:01.575Z,17.40
2023-01-06T04:55:31.448Z,16.50
2023-01-06T04:58:00.120Z,17.10
2023-01-06T05:00:28.566Z,17.30
2023-01-06T05:02:56.832Z,17.50
2023-01-06T05:05:25.240Z,17.30
2023-01-06T05:07:55.669Z,17.00
2023-01-06T05:10:24.213Z,17.20
2023-01-06T05:12:54.174Z,16.80
2023-01-06T05:15:22.715Z,17.10
2023-01-06T05:17:51.120Z,16.90
2023-01-06T05:20:19.557Z,16.90
2023-01-06T05:22:48.276Z,16.90
2023-01-06T05:25:16.651Z,17.00
2023-01-06T05:27:45.175Z,16.70
2023-01-06T05:30:15.430Z,17.10
2023-01-06T05:32:43.824Z,17.30
2023-01-06T05:35:12.248Z,16.90
2023-01-06T05:37:40.663Z,16.70
2023-01-06T05:40:09.885Z,17.30
2023-01-06T05:42:38.318Z,17.10
2023-01-06T05:45:07.221Z,16.80
2023-01-06T05:47:36.753Z,16.90
2023-01-06T05:50:06.017Z,16.80
2023-01-06T05:52:34.586Z,16.80
2023-01-06T05:55:03.013Z,16.70
2023-01-06T05:57:34.043Z,16.20
2023-01-06T06:00:02.420Z,15.70
2023-01-06T06:02:31.381Z,16.30
2023-01-06T06:05:01.006Z,16.40
2023-01-06T06:07:29.538Z,16.20
2023-01-06T06:09:57.983Z,16.30
2023-01-06T06:12:26.377Z,16.20
2023-01-06T06:14:54.833Z,16.30
2023-01-06T06:17:23.208Z,16.20
2023-01-06T06:19:51.691Z,15.60
2023-01-06T06:22:21.281Z,16.00
2023-01-06T06:24:49.543Z,15.30
2023-01-06T06:27:17.847Z,15.60
2023-01-06T06:29:46.246Z,15.10
2023-01-06T06:32:14.741Z,14.70
2023-01-06T06:34:42.888Z,14.40
2023-01-06T06:37:12.570Z,14.30
2023-01-06T06:39:42.400Z,13.60
2023-01-06T06:42:11.469Z,13.20
2023-01-06T06:44:39.891Z,13.00
2023-01-06T06:47:08.160Z,13.10
2023-01-06T06:49:36.593Z,12.90
2023-01-06T06:52:05.077Z,13.10
2023-01-06T06:54:33.586Z,12.90
2023-01-06T06:57:03.145Z,12.90
2023-01-06T06:59:31.338Z,12.90
2023-01-06T07:01:59.683Z,12.90
2023-01-06T07:04:28.209Z,13.00
2023-01-06T07:06:57.940Z,12.70
2023-01-06T07:09:26.246Z,13.20
2023-01-06T07:11:55.017Z,13.30
2023-01-06T07:14:24.655Z,13.30
2023-01-06T07:16:53.112Z,13.20
2023-01-06T07:19:21.577Z,13.30
2023-01-06T07:21:50.196Z,13.10
2023-01-06T07:24:18.549Z,12.60
2023-01-06T07:26:46.922Z,12.50
2023-01-06T07:29:15.316Z,12.50
2023-01-06T07:31:45.116Z,12.40
2023-01-06T07:34:13.544Z,12.30
2023-01-06T07:36:41.847Z,12.30
2023-01-06T07:39:10.361Z,12.30
2023-01-06T07:41:38.783Z,12.20
2023-01-06T07:44:07.093Z,12.10
2023-01-06T07:46:35.471Z,12.10
2023-01-06T07:49:05.021Z,12.00
2023-01-06T07:51:33.496Z,12.00
2023-01-06T07:54:02.324Z,11.70
2023-01-06T07:56:31.035Z,11.70
2023-01-06T07:58:59.451Z,11.60
2023-01-06T08:01:28.354Z,11.60
2023-01-06T08:03:56.697Z,11.50
2023-01-06T08:06:26.195Z,11.50
2023-01-06T08:08:54.701Z,11.40
2023-01-06T08:11:23.177Z,11.40
2023-01-06T08:13:51.626Z,11.30
2023-01-06T08:16:20.250Z,11.30
2023-01-06T08:18:48.694Z,11.20
2023-01-06T08:21:17.123Z,11.20
2023-01-06T08:23:46.709Z,11.10
2023-01-06T08:26:16.440Z,11.20
2023-01-06T08:28:46.059Z,11.20
2023-01-06T08:31:16.651Z,11.30
2023-01-06T08:33:45.070Z,11.30
2023-01-06T08:36:15.844Z,11.30
2023-01-06T08:38:46.077Z,11.30
2023-01-06T08:41:16.751Z,11.40
2023-01-06T08:43:46.444Z,11.30
2023-01-06T08:46:17.154Z,11.30
2023-01-06T08:48:45.973Z,11.30
2023-01-06T08:51:16.081Z,11.20
2023-01-06T08:53:46.860Z,11.20
2023-01-06T08:56:16.093Z,11.20
2023-01-06T08:58:44.556Z,11.10
2023-01-06T09:01:20.873Z,11.20
2023-01-06T09:03:49.172Z,11.20
2023-01-06T09:06:18.196Z,11.20
2023-01-06T09:08:48.616Z,11.20
2023-01-06T09:11:18.343Z,11.10
2023-01-06T09:13:47.795Z,11.10
2023-01-06T09:16:16.280Z,11.10
2023-01-06T09:18:49.671Z,11.10
2023-01-06T09:21:19.237Z,11.10
2023-01-06T09:23:49.246Z,11.10
2023-01-06T09:26:19.075Z,11.10
2023-01-06T09:28:47.533Z,11.10
2023-01-06T09:31:18.421Z,11.10
2023-01-06T09:33:46.808Z,11.10
2023-01-06T09:36:15.172Z,11.20
2023-01-06T09:38:43.764Z,11.20
2023-01-06T09:41:41.663Z,11.20
2023-01-06T09:44:14.240Z,11.30
2023-01-06T09:46:45.247Z,11.30
2023-01-06T09:49:21.656Z,11.50
2023-01-06T09:51:50.341Z,11.60
2023-01-06T09:54:21.379Z,11.70
2023-01-06T09:56:55.764Z,12.20
2023-01-06T09:59:28.672Z,12.20
2023-01-06T10:01:59.776Z,12.10
2023-01-06T10:04:30.104Z,11.90
2023-01-06T10:07:09.783Z,11.80
2023-01-06T10:09:47.063Z,11.70
2023-01-06T10:12:28.718Z,11.70
2023-01-06T10:15:04.944Z,12.00
2023-01-06T10:17:57.939Z,12.70
2023-01-06T10:20:46.267Z,13.40
2023-01-06T10:23:28.076Z,13.50
2023-01-06T10:26:00.519Z,13.90
2023-01-06T10:28:35.165Z,14.70
2023-01-06T10:31:06.623Z,15.60
2023-01-06T10:33:38.840Z,15.20
2023-01-06T10:36:13.871Z,13.10
2023-01-06T10:38:45.215Z,12.50
2023-01-06T10:41:21.109Z,12.30
2023-01-06T10:43:50.619Z,12.00
2023-01-06T10:46:19.046Z,11.90
2023-01-06T10:48:50.315Z,11.80
2023-01-06T10:51:37.001Z,11.80
2023-01-06T10:54:09.550Z,11.80
2023-01-06T10:56:39.605Z,11.80
2023-01-06T10:59:10.736Z,11.80
2023-01-06T11:01:51.139Z,11.80
2023-01-06T11:04:20.136Z,11.80
2023-01-06T11:06:52.501Z,11.90
2023-01-06T11:09:27.348Z,11.80
2023-01-06T11:11:57.400Z,11.80
2023-01-06T11:14:31.455Z,11.80
2023-01-06T11:17:02.632Z,11.80
2023-01-06T11:19:37.397Z,11.80
2023-01-06T11:22:07.042Z,11.80
2023-01-06T11:24:51.829Z,11.80
2023-01-06T11:27:20.352Z,11.80
2023-01-06T11:29:50.036Z,11.90
2023-01-06T11:32:23.623Z,11.90
2023-01-06T11:34:55.832Z,11.90
2023-01-06T11:37:34.810Z,11.90
2023-01-06T11:40:11.284Z,12.00
2023-01-06T11:45:34.158Z,12.10
2023-01-06T11:48:03.783Z,12.10
2023-01-06T11:50:32.943Z,12.10
2023-01-06T11:53:02.472Z,12.60
2023-01-06T11:55:31.005Z,13.70
2023-01-06T11:58:05.004Z,14.50
2023-01-06T12:00:46.497Z,15.40
2023-01-06T12:03:22.063Z,15.50
2023-01-06T12:05:57.262Z,15.90
2023-01-06T12:08:29.519Z,14.80
2023-01-06T12:11:00.663Z,15.20
2023-01-06T12:13:29.732Z,14.40
2023-01-06T12:16:05.183Z,14.00
2023-01-06T12:18:36.784Z,14.20
2023-01-06T12:21:06.308Z,14.90
2023-01-06T12:23:38.762Z,14.40
2023-01-06T12:26:15.339Z,14.40
2023-01-06T12:28:46.289Z,14.00
2023-01-06T12:31:22.360Z,13.90
2023-01-06T12:33:55.459Z,14.30
2023-01-06T12:36:31.456Z,14.80
2023-01-06T12:39:03.495Z,14.60
2023-01-06T12:41:39.287Z,14.20
2023-01-06T12:44:17.916Z,14.10
2023-01-06T12:46:56.920Z,14.30
2023-01-06T12:49:34.150Z,14.20
2023-01-06T12:52:07.628Z,14.30
2023-01-06T12:54:37.461Z,14.20
2023-01-06T12:57:41.050Z,14.00
2023-01-06T13:00:26.594Z,14.40
2023-01-06T13:03:09.700Z,15.00
2023-01-06T13:05:52.806Z,14.50
2023-01-06T13:08:28.689Z,13.90
2023-01-06T13:11:11.803Z,13.80
2023-01-06T13:14:02.604Z,13.70
2023-01-06T13:16:38.612Z,13.80
2023-01-06T13:19:20.316Z,13.80
2023-01-06T13:21:52.175Z,13.80
2023-01-06T13:24:42.491Z,13.60
2023-01-06T13:27:20.292Z,14.10
2023-01-06T13:30:06.358Z,13.80
2023-01-06T13:32:48.230Z,14.00
2023-01-06T13:35:39.772Z,13.80
2023-01-06T13:38:22.329Z,13.70
2023-01-06T13:40:52.801Z,13.60
2023-01-06T13:43:25.857Z,13.70
2023-01-06T13:46:02.742Z,13.80
2023-01-06T13:48:33.636Z,13.70
2023-01-06T13:51:05.701Z,13.80
2023-01-06T13:53:40.604Z,13.80
2023-01-06T13:56:25.484Z,13.60
2023-01-06T13:59:20.639Z,13.60
2023-01-06T14:01:49.487Z,13.80
2023-01-06T14:04:46.976Z,14.50
2023-01-06T14:07:16.466Z,14.10
2023-01-06T14:09:50.806Z,14.00
2023-01-06T14:12:22.990Z,14.40
2023-01-06T14:15:01.214Z,14.60
2023-01-06T14:17:39.133Z,15.30
2023-01-06T14:20:22.601Z,16.00
2023-01-06T14:23:03.781Z,15.00
2023-01-06T14:25:36.113Z,15.20
2023-01-06T14:28:25.823Z,15.80
2023-01-06T14:31:38.817Z,15.50
2023-01-06T14:34:11.955Z,14.90
2023-01-06T14:36:41.080Z,14.80
2023-01-06T14:39:18.362Z,15.20
2023-01-06T14:42:02.486Z,16.00
2023-01-06T14:44:44.355Z,15.50
2023-01-06T14:47:17.766Z,15.60
2023-01-06T14:49:50.651Z,15.40
2023-01-06T14:52:23.607Z,14.90
2023-01-06T14:54:54.488Z,14.80
2023-01-06T14:57:33.854Z,14.70
2023-01-06T15:00:18.617Z,14.80
2023-01-06T15:02:48.629Z,14.90
2023-01-06T15:05:20.944Z,14.70
2023-01-06T15:08:00.558Z,15.20
2023-01-06T15:10:30.438Z,15.40
2023-01-06T15:13:00.522Z,14.90
2023-01-06T15:15:30.878Z,14.70
2023-01-06T15:18:01.648Z,14.30
2023-01-06T15:20:32.969Z,14.30
2023-01-06T15:23:02.346Z,15.00
2023-01-06T15:25:40.030Z,14.80
2023-01-06T15:28:25.410Z,14.40
2023-01-06T15:30:53.989Z,14.50
2023-01-06T15:33:24.677Z,14.30
2023-01-06T15:35:54.203Z,14.10
2023-01-06T15:38:27.184Z,13.80
2023-01-06T15:40:56.073Z,13.70
2023-01-06T15:43:28.373Z,13.60
2023-01-06T15:46:02.900Z,13.50
2023-01-06T15:48:34.430Z,13.40
2023-01-06T15:51:10.385Z,13.30
2023-01-06T15:53:38.797Z,13.30
2023-01-06T15:56:09.786Z,13.30
2023-01-06T15:58:40.792Z,13.20
2023-01-06T16:01:13.331Z,13.10
2023-01-06T16:03:41.739Z,13.20
2023-01-06T16:06:12.541Z,13.50
2023-01-06T16:08:41.604Z,13.60
2023-01-06T16:11:47.221Z,13.80
2023-01-06T16:14:32.131Z,13.90
2023-01-06T16:17:07.972Z,14.10
2023-01-06T16:19:40.397Z,14.30
2023-01-06T16:22:19.798Z,14.60
2023-01-06T16:24:52.138Z,14.20
2023-01-06T16:27:24.846Z,14.20
2023-01-06T16:30:10.601Z,14.30
2023-01-06T16:32:40.805Z,14.40
2023-01-06T16:35:13.584Z,14.80
2023-01-06T16:37:42.222Z,14.70
2023-01-06T16:40:11.904Z,14.50
2023-01-06T16:42:42.387Z,14.30
2023-01-06T16:45:19.542Z,14.40
2023-01-06T16:47:48.094Z,14.30
2023-01-06T16:50:18.996Z,14.10
2023-01-06T16:52:49.423Z,14.00
2023-01-06T16:55:19.729Z,13.80
2023-01-06T16:57:50.571Z,13.90
2023-01-06T17:00:22.728Z,14.90
2023-01-06T17:02:52.441Z,15.20
2023-01-06T17:05:29.548Z,15.30
2023-01-06T17:08:01.061Z,15.10
2023-01-06T17:10:29.769Z,14.50
2023-01-06T17:13:19.264Z,14.90
2023-01-06T17:15:52.836Z,14.40
2023-01-06T17:18:26.671Z,14.70
2023-01-06T17:21:01.167Z,14.70
2023-01-06T17:23:29.858Z,15.00
2023-01-06T17:26:03.508Z,15.50
2023-01-06T17:28:33.338Z,16.00
2023-01-06T17:31:03.155Z,15.40
2023-01-06T17:33:32.090Z,15.00
2023-01-06T17:36:02.886Z,14.80
2023-01-06T17:38:31.508Z,14.90
2023-01-06T17:40:59.933Z,14.70
2023-01-06T17:43:31.207Z,14.50
2023-01-06T17:46:00.250Z,14.50
2023-01-06T17:48:29.728Z,14.20
2023-01-06T17:50:59.066Z,14.10
2023-01-06T17:53:48.212Z,14.30
2023-01-06T17:56:16.864Z,14.40
2023-01-06T17:58:46.368Z,14.00
2023-01-06T18:01:20.033Z,13.90
2023-01-06T18:03:49.946Z,14.40
2023-01-06T18:06:30.476Z,14.20
2023-01-06T18:09:08.434Z,14.20
2023-01-06T18:11:38.939Z,14.20
2023-01-06T18:14:26.057Z,14.10
2023-01-06T18:16:56.714Z,13.90
2023-01-06T18:19:33.263Z,14.10
2023-01-06T18:22:04.693Z,14.30
2023-01-06T18:24:36.957Z,14.50
2023-01-06T18:27:14.213Z,14.50
2023-01-06T18:29:45.201Z,14.40
2023-01-06T18:32:32.280Z,14.60
2023-01-06T18:35:03.059Z,15.70
2023-01-06T18:37:33.408Z,15.20
2023-01-06T18:40:03.882Z,15.20
2023-01-06T18:42:34.106Z,15.10
2023-01-06T18:45:22.275Z,15.30
2023-01-06T18:47:56.197Z,14.80
2023-01-06T18:50:29.353Z,14.90
2023-01-06T18:52:58.219Z,14.80
2023-01-06T18:55:30.819Z,15.30
2023-01-06T18:58:02.249Z,15.00
2023-01-06T19:00:40.844Z,15.30
2023-01-06T19:03:40.032Z,15.00
2023-01-06T19:06:34.612Z,15.10
2023-01-06T19:09:07.545Z,15.10
2023-01-06T19:11:36.014Z,15.00
2023-01-06T19:14:11.783Z,14.80
2023-01-06T19:16:44.298Z,14.80
2023-01-06T19:19:28.724Z,14.40
2023-01-06T19:22:14.586Z,14.90
2023-01-06T19:24:46.955Z,15.10
2023-01-06T19:27:32.871Z,14.80
2023-01-06T19:30:38.610Z,15.30
2023-01-06T19:33:26.909Z,15.20
2023-01-06T19:36:01.622Z,15.00
2023-01-06T19:38:35.738Z,15.00
2023-01-06T19:41:08.990Z,14.80
2023-01-06T19:43:37.668Z,14.70
2023-01-06T19:46:17.290Z,14.50
2023-01-06T19:48:46.763Z,14.40
2023-01-06T19:51:27.470Z,14.70
2023-01-06T19:54:00.381Z,14.20
2023-01-06T19:56:30.969Z,14.10
2023-01-06T19:59:01.306Z,14.30
2023-01-06T20:01:32.767Z,14.30
2023-01-06T20:04:01.565Z,14.20
2023-01-06T20:06:30.086Z,14.00
2023-01-06T20:08:59.596Z,14.30
2023-01-06T20:11:28.036Z,14.40
2023-01-06T20:13:56.431Z,14.70
2023-01-06T20:16:24.870Z,14.60
2023-01-06T20:18:53.525Z,14.20
2023-01-06T20:21:22.089Z,14.10
2023-01-06T20:23:50.531Z,13.90
2023-01-06T20:26:20.292Z,13.90
2023-01-06T20:28:48.699Z,14.30
2023-01-06T20:31:17.701Z,14.20
2023-01-06T20:33:46.112Z,14.40
2023-01-06T20:36:17.189Z,14.60
2023-01-06T20:38:45.921Z,14.50
2023-01-06T20:41:14.616Z,14.60
2023-01-06T20:43:44.261Z,14.60
2023-01-06T20:46:13.492Z,14.50
2023-01-06T20:48:42.315Z,15.10
2023-01-06T20:51:10.744Z,15.20
2023-01-06T20:53:39.134Z,14.80
2023-01-06T20:56:07.931Z,14.70
2023-01-06T20:58:36.382Z,14.90
2023-01-06T21:01:06.140Z,14.70
2023-01-06T21:03:34.729Z,14.50
2023-01-06T21:06:03.268Z,14.80
2023-01-06T21:08:31.560Z,15.10
2023-01-06T21:11:00.240Z,15.70
2023-01-06T21:13:28.820Z,15.20
2023-01-06T21:15:57.187Z,15.00
2023-01-06T21:18:26.721Z,15.20
2023-01-06T21:20:55.394Z,15.30
2023-01-06T21:23:23.820Z,15.80
2023-01-06T21:25:52.234Z,15.30
2023-01-06T21:28:20.771Z,15.60
2023-01-06T21:30:49.334Z,15.60
2023-01-06T21:33:18.557Z,15.60
2023-01-06T21:35:49.060Z,14.90
2023-01-06T21:38:17.610Z,15.10
2023-01-06T21:40:46.019Z,15.00
2023-01-06T21:43:13.588Z,14.50
2023-01-06T21:45:43.136Z,14.70
2023-01-06T21:48:12.832Z,14.10
2023-01-06T21:50:44.395Z,14.10
2023-01-06T21:53:15.169Z,14.30
2023-01-06T21:55:43.476Z,14.30
2023-01-06T21:58:11.976Z,14.10
2023-01-06T22:00:40.844Z,14.20
2023-01-06T22:03:09.331Z,13.80
2023-01-06T22:05:37.944Z,14.40
2023-01-06T22:08:07.183Z,14.30
2023-01-06T22:10:40.370Z,14.90
2023-01-06T22:13:10.024Z,14.40
2023-01-06T22:15:38.585Z,14.80
2023-01-06T22:18:08.457Z,14.40
2023-01-06T22:20:37.605Z,14.30
2023-01-06T22:23:11.325Z,14.60
2023-01-06T22:25:41.796Z,14.30
2023-01-06T22:28:10.246Z,14.30
2023-01-06T22:30:38.709Z,14.50
2023-01-06T22:33:07.182Z,14.60
2023-01-06T22:35:35.550Z,14.80
2023-01-06T22:38:04.001Z,14.70
2023-01-06T22:40:32.460Z,15.10
2023-01-06T22:43:02.435Z,15.40
2023-01-06T22:45:30.860Z,15.20
2023-01-06T22:47:59.321Z,15.20
2023-01-06T22:50:27.714Z,14.80
2023-01-06T22:52:57.456Z,14.90
2023-01-06T22:55:25.943Z,14.90
2023-01-06T22:57:54.290Z,14.40
2023-01-06T23:00:23.846Z,15.00
2023-01-06T23:02:52.415Z,14.90
2023-01-06T23:05:20.836Z,14.50
2023-01-06T23:07:49.181Z,14.30
2023-01-06T23:10:17.643Z,14.60
2023-01-06T23:12:46.355Z,14.80
2023-01-06T23:15:14.760Z,14.90
2023-01-06T23:17:44.441Z,15.60
2023-01-06T23:20:13.089Z,15.40
2023-01-06T23:22:41.744Z,15.10
2023-01-06T23:25:10.441Z,15.70
2023-01-06T23:27:39.974Z,15.70
2023-01-06T23:30:09.375Z,15.80
2023-01-06T23:32:37.557Z,15.70
2023-01-06T23:35:07.818Z,15.00
2023-01-06T23:37:36.351Z,14.70
2023-01-06T23:40:05.061Z,14.50
2023-01-06T23:42:37.337Z,14.70
2023-01-06T23:45:12.830Z,14.90
2023-01-06T23:47:41.221Z,14.90
2023-01-06T23:50:11.248Z,15.30
2023-01-06T23:52:40.091Z,15.30
2023-01-06T23:55:08.863Z,15.30
2023-01-06T23:57:37.201Z,15.30
